Time;durP1;ratioP1;P1;durP2;ratioP2;P2;SDS_P1;SDS_P2;PMS_P1;PMS_P2;Temp;Humidity;BMP_temperature;BMP_pressure;BME280_temperature;BME280_humidity;BME280_pressure;Samples;Min_cycle;Max_cycle;Signal;HPM_P1;HPM_P2
2023/05/10 00:02:02;;;;;;;8.50;5.60;;;;;;;7.07;64.07;98767.81;104716;1265;97909;-65
2023/05/10 00:04:29;;;;;;;9.30;5.30;;;;;;;7.01;64.43;98765.13;104587;1282;98585;-68
2023/05/10 00:06:56;;;;;;;10.60;5.40;;;;;;;6.96;64.31;98763.65;104646;1282;97994;-64
2023/05/10 00:09:23;;;;;;;10.50;5.70;;;;;;;6.93;64.35;98759.81;104661;1274;98046;-67
2023/05/10 00:11:50;;;;;;;8.80;5.10;;;;;;;6.89;64.70;98755.61;104691;1263;99127;-67
2023/05/10 00:14:18;;;;;;;9.20;5.40;;;;;;;6.85;65.15;98754.16;104683;1274;97922;-67
2023/05/10 00:16:45;;;;;;;9.70;5.30;;;;;;;6.81;64.87;98755.46;104605;1271;98011;-67
2023/05/10 00:19:12;;;;;;;9.20;5.20;;;;;;;6.76;64.90;98753.85;104712;1273;98611;-65
2023/05/10 00:21:39;;;;;;;7.40;4.70;;;;;;;6.74;65.06;98755.08;104706;1273;98462;-66
2023/05/10 00:24:06;;;;;;;8.30;5.50;;;;;;;6.71;65.08;98756.85;104622;1262;98002;-66
2023/05/10 00:26:33;;;;;;;9.00;5.10;;;;;;;6.68;65.25;98756.81;104778;1263;97916;-66
2023/05/10 00:29:00;;;;;;;7.00;4.30;;;;;;;6.64;64.87;98756.64;104638;1266;98961;-67
2023/05/10 00:31:28;;;;;;;12.20;5.20;;;;;;;6.61;65.69;98752.14;104525;1263;99260;-66
2023/05/10 00:33:55;;;;;;;9.70;5.40;;;;;;;6.56;66.11;98754.31;104626;1275;97948;-66
2023/05/10 00:36:22;;;;;;;11.00;5.60;;;;;;;6.51;65.80;98752.54;104739;1273;99237;-66
2023/05/10 00:38:50;;;;;;;9.10;5.50;;;;;;;6.46;66.46;98752.90;104677;1273;99225;-66
2023/05/10 00:41:17;;;;;;;8.90;5.10;;;;;;;6.44;66.23;98750.80;104579;1261;97927;-66
2023/05/10 00:43:44;;;;;;;8.50;5.60;;;;;;;6.41;66.67;98748.63;104631;1274;97990;-66
2023/05/10 00:46:14;;;;;;;9.50;5.50;;;;;;;6.38;66.65;98744.73;104590;1264;98480;-66
2023/05/10 00:48:41;;;;;;;8.50;5.20;;;;;;;6.36;66.81;98742.69;104664;1264;108273;-66
2023/05/10 00:51:08;;;;;;;6.80;4.60;;;;;;;6.35;66.94;98738.56;104321;1267;98050;-67
2023/05/10 00:53:36;;;;;;;8.90;4.80;;;;;;;6.35;67.19;98740.64;104569;1263;99608;-67
2023/05/10 00:56:03;;;;;;;8.10;5.10;;;;;;;6.34;67.15;98740.04;104632;1273;98029;-67
2023/05/10 00:58:31;;;;;;;8.20;4.50;;;;;;;6.33;67.56;98738.30;104544;1265;99136;-66
2023/05/10 01:00:58;;;;;;;8.90;4.90;;;;;;;6.31;67.70;98738.09;104763;1264;98086;-66
2023/05/10 01:03:26;;;;;;;8.30;5.30;;;;;;;6.31;67.44;98735.11;104747;1272;98052;-65
2023/05/10 01:05:53;;;;;;;9.70;5.60;;;;;;;6.28;67.47;98735.39;104760;1273;98058;-65
2023/05/10 01:08:21;;;;;;;8.10;5.40;;;;;;;6.26;67.96;98730.95;104772;1273;99224;-65
2023/05/10 01:10:52;;;;;;;11.50;5.80;;;;;;;6.22;68.04;98732.89;104367;1267;98202;-66
2023/05/10 01:13:45;;;;;;;;;;;;;;;6.21;68.08;98729.73;104842;1271;108720;-66
2023/05/10 01:16:13;;;;;;;11.40;5.20;;;;;;;6.18;68.33;98728.02;104511;1267;99323;-66
2023/05/10 01:18:44;;;;;;;11.00;5.60;;;;;;;6.17;68.11;98725.89;104695;1275;99148;-65
2023/05/10 01:21:33;;;;;;;8.40;5.40;;;;;;;6.14;68.47;98719.00;104588;1260;111274;-66
2023/05/10 01:24:23;;;;;;;9.00;5.10;;;;;;;6.12;68.13;98719.94;104571;1266;99338;-66
2023/05/10 01:26:50;;;;;;;7.90;4.90;;;;;;;6.11;68.46;98714.79;104615;1264;108515;-68
2023/05/10 01:29:33;;;;;;;9.90;5.80;;;;;;;6.12;68.10;98713.20;104533;1264;98029;-70
2023/05/10 01:32:12;;;;;;;10.90;5.50;;;;;;;6.13;67.95;98713.95;104561;1276;98436;-68
2023/05/10 01:34:50;;;;;;;6.30;4.70;;;;;;;6.14;68.25;98710.19;104307;1276;347681;-65
2023/05/10 01:37:25;;;;;;;8.90;5.10;;;;;;;6.15;68.35;98711.52;104472;1268;98686;-68
2023/05/10 01:40:02;;;;;;;8.60;5.20;;;;;;;6.09;68.47;98711.09;104546;1264;108523;-66
2023/05/10 01:42:39;;;;;;;9.40;5.90;;;;;;;6.07;68.14;98705.94;104518;1274;97951;-66
2023/05/10 01:45:06;;;;;;;8.80;6.00;;;;;;;6.04;68.63;98707.85;104648;1273;98079;-68
2023/05/10 01:48:02;;;;;;;9.50;5.90;;;;;;;5.97;68.69;98704.34;104558;1273;112032;-68
2023/05/10 01:50:30;;;;;;;9.40;5.40;;;;;;;5.93;68.66;98705.98;104344;1266;98010;-68
2023/05/10 01:53:00;;;;;;;9.30;6.00;;;;;;;5.89;68.63;98703.14;104488;1273;108222;-68
2023/05/10 01:55:32;;;;;;;8.40;5.60;;;;;;;5.85;68.89;98705.06;104591;1282;99217;-67
2023/05/10 01:58:04;;;;;;;9.00;5.00;;;;;;;5.82;68.98;98707.48;104757;1263;97928;-69
2023/05/10 02:00:33;;;;;;;9.40;5.80;;;;;;;5.78;69.13;98701.08;104351;1271;110881;-66
2023/05/10 02:03:05;;;;;;;8.40;5.40;;;;;;;5.76;69.19;98702.89;104774;1266;99533;-66
2023/05/10 02:05:35;;;;;;;9.40;5.60;;;;;;;5.73;69.50;98699.80;104713;1275;108659;-65
2023/05/10 02:08:05;;;;;;;8.90;5.30;;;;;;;5.70;69.76;98696.17;104632;1270;97937;-65
2023/05/10 02:10:34;;;;;;;11.40;5.50;;;;;;;5.68;69.87;98695.48;104567;1268;97907;-65
2023/05/10 02:13:03;;;;;;;8.30;5.40;;;;;;;5.65;69.70;98694.19;104490;1275;109715;-66
2023/05/10 02:15:32;;;;;;;8.80;4.80;;;;;;;5.63;69.84;98695.66;104555;1270;99240;-66
2023/05/10 02:18:00;;;;;;;9.50;5.60;;;;;;;5.60;70.35;98691.11;104729;1273;107112;-66
2023/05/10 02:20:29;;;;;;;8.90;5.20;;;;;;;5.56;70.48;98690.48;104715;1266;97948;-66
2023/05/10 02:22:58;;;;;;;9.80;5.60;;;;;;;5.54;70.44;98690.16;104764;1266;98458;-66
2023/05/10 02:25:26;;;;;;;8.70;5.50;;;;;;;5.53;70.85;98689.30;104709;1261;111797;-65
2023/05/10 02:27:56;;;;;;;7.90;5.30;;;;;;;5.55;70.24;98687.40;104723;1271;99261;-66
2023/05/10 02:30:24;;;;;;;9.50;5.30;;;;;;;5.56;70.28;98684.84;104659;1260;108142;-66
2023/05/10 02:32:52;;;;;;;9.40;5.30;;;;;;;5.56;70.58;98684.61;104474;1267;97999;-66
2023/05/10 02:35:21;;;;;;;7.80;4.60;;;;;;;5.59;70.63;98684.33;104511;1270;99766;-66
2023/05/10 02:37:50;;;;;;;11.40;5.10;;;;;;;5.60;70.37;98683.02;104349;1276;111249;-65
2023/05/10 02:40:19;;;;;;;9.80;5.80;;;;;;;5.62;70.51;98681.32;104656;1273;99434;-66
2023/05/10 02:42:48;;;;;;;7.70;4.80;;;;;;;5.61;70.53;98679.38;104723;1264;108493;-66
2023/05/10 02:45:20;;;;;;;9.40;4.50;;;;;;;5.58;70.83;98677.38;104709;1264;98119;-65
2023/05/10 02:47:48;;;;;;;10.20;5.30;;;;;;;5.55;71.13;98682.94;104344;1269;97897;-66
2023/05/10 02:50:15;;;;;;;7.70;4.80;;;;;;;5.52;71.25;98680.23;104473;1276;111269;-66
2023/05/10 02:52:47;;;;;;;9.20;4.90;;;;;;;5.50;71.25;98683.12;104302;1279;98211;-69
2023/05/10 02:55:16;;;;;;;6.70;4.20;;;;;;;5.47;71.43;98685.09;104370;1279;108083;-68
2023/05/10 02:57:51;;;;;;;8.50;4.80;;;;;;;5.45;71.30;98681.17;104274;1270;98098;-66
2023/05/10 03:00:19;;;;;;;7.90;4.40;;;;;;;5.44;71.11;98683.36;104290;1267;98013;-67
2023/05/10 03:02:46;;;;;;;9.10;5.30;;;;;;;5.41;71.48;98688.76;104255;1269;112337;-68
2023/05/10 03:05:13;;;;;;;11.60;5.90;;;;;;;5.38;71.57;98691.54;104336;1270;98307;-67
2023/05/10 03:07:40;;;;;;;11.40;5.60;;;;;;;5.36;71.96;98689.42;104289;1270;98108;-67
2023/05/10 03:10:08;;;;;;;8.40;5.50;;;;;;;5.33;71.81;98688.85;104232;1270;99330;-67
2023/05/10 03:13:05;;;;;;;13.10;5.70;;;;;;;5.32;71.63;98690.88;104795;1263;97911;-68
2023/05/10 03:15:58;;;;;;;9.60;5.40;;;;;;;5.31;71.68;98689.61;104502;1269;111789;-67
2023/05/10 03:18:37;;;;;;;9.70;5.40;;;;;;;5.29;71.75;98691.64;104480;1276;99281;-67
2023/05/10 03:21:10;;;;;;;8.40;5.10;;;;;;;5.27;72.07;98691.20;104477;1259;107467;-66
2023/05/10 03:23:50;;;;;;;9.10;6.20;;;;;;;5.26;72.15;98690.60;104582;1261;99308;-67
2023/05/10 03:26:26;;;;;;;7.90;5.20;;;;;;;5.30;71.82;98686.14;104578;1282;98430;-67
2023/05/10 03:28:54;;;;;;;11.30;5.50;;;;;;;5.30;72.55;98687.73;104582;1260;111881;-67
2023/05/10 03:31:21;;;;;;;8.70;4.90;;;;;;;5.33;72.28;98685.70;104433;1267;100858;-66
2023/05/10 03:33:50;;;;;;;10.00;6.30;;;;;;;5.38;72.02;98686.55;104308;1264;108306;-67
2023/05/10 03:36:18;;;;;;;8.30;5.40;;;;;;;5.41;72.05;98684.35;104606;1264;98879;-66
2023/05/10 03:38:45;;;;;;;8.40;5.00;;;;;;;5.43;72.10;98679.51;104450;1266;98729;-66
2023/05/10 03:41:12;;;;;;;9.20;5.50;;;;;;;5.45;71.94;98675.15;104653;1264;98027;-67
2023/05/10 03:43:38;;;;;;;7.70;5.20;;;;;;;5.48;72.08;98672.52;104621;1273;98457;-66
2023/05/10 03:46:06;;;;;;;10.70;5.40;;;;;;;5.49;72.05;98676.48;104773;1263;97938;-66
2023/05/10 03:48:33;;;;;;;12.80;6.40;;;;;;;5.52;72.20;98676.16;104749;1264;97955;-66
2023/05/10 03:51:00;;;;;;;10.60;5.90;;;;;;;5.58;72.22;98676.45;104679;1264;97935;-66
2023/05/10 03:53:27;;;;;;;7.90;5.70;;;;;;;5.66;71.79;98674.13;104590;1274;97979;-66
2023/05/10 03:55:54;;;;;;;9.50;5.90;;;;;;;5.74;71.66;98672.66;104872;1263;98388;-67
2023/05/10 03:58:21;;;;;;;11.70;6.00;;;;;;;5.82;71.43;98670.65;104716;1264;98002;-67
2023/05/10 04:00:48;;;;;;;12.60;6.20;;;;;;;5.90;71.26;98676.36;104644;1264;97901;-67
2023/05/10 04:03:16;;;;;;;8.40;4.70;;;;;;;5.98;71.33;98675.00;104652;1264;98046;-67
2023/05/10 04:05:43;;;;;;;9.80;6.10;;;;;;;6.06;71.25;98678.63;104778;1264;97922;-66
2023/05/10 04:08:10;;;;;;;9.70;5.90;;;;;;;6.15;71.08;98679.21;104795;1263;98021;-67
2023/05/10 04:10:37;;;;;;;11.40;5.50;;;;;;;6.25;70.53;98678.05;104558;1259;98043;-68
2023/05/10 04:13:04;;;;;;;10.50;5.90;;;;;;;6.38;70.32;98677.41;104524;1261;97966;-67
2023/05/10 04:15:31;;;;;;;9.90;6.10;;;;;;;6.46;70.61;98678.47;104758;1263;98539;-66
2023/05/10 04:17:58;;;;;;;9.20;5.70;;;;;;;6.54;69.97;98677.82;104788;1274;98022;-66
2023/05/10 04:20:25;;;;;;;9.60;5.80;;;;;;;6.62;69.72;98678.34;104777;1265;98849;-66
2023/05/10 04:22:51;;;;;;;11.70;6.20;;;;;;;6.72;69.51;98677.97;104450;1267;98007;-67
2023/05/10 04:25:19;;;;;;;9.90;6.20;;;;;;;6.85;69.17;98679.09;104784;1261;97922;-66
2023/05/10 04:27:46;;;;;;;9.10;4.90;;;;;;;6.96;69.24;98676.64;104529;1264;101539;-66
2023/05/10 04:30:13;;;;;;;7.10;4.60;;;;;;;7.06;68.96;98678.32;104740;1263;97982;-67
2023/05/10 04:32:41;;;;;;;7.90;5.10;;;;;;;7.17;68.29;98678.48;104715;1259;98043;-65
2023/05/10 04:35:10;;;;;;;7.80;4.80;;;;;;;7.23;68.25;98675.67;104698;1274;98067;-67
2023/05/10 04:37:37;;;;;;;8.70;5.40;;;;;;;7.30;67.96;98678.27;104596;1269;111374;-67
2023/05/10 04:40:06;;;;;;;7.40;3.90;;;;;;;7.38;67.45;98676.30;104765;1263;99110;-66
2023/05/10 04:42:32;;;;;;;8.70;5.10;;;;;;;7.43;67.21;98673.38;104776;1273;108193;-65
2023/05/10 04:44:59;;;;;;;8.80;5.50;;;;;;;7.52;67.04;98675.43;104705;1264;99222;-65
2023/05/10 04:47:26;;;;;;;8.00;4.90;;;;;;;7.60;66.83;98678.91;104770;1264;98005;-67
2023/05/10 04:49:53;;;;;;;10.80;5.10;;;;;;;7.70;66.33;98681.63;104752;1259;97935;-67
2023/05/10 04:52:20;;;;;;;7.90;5.10;;;;;;;7.75;66.27;98676.52;104637;1275;98528;-65
2023/05/10 04:54:47;;;;;;;10.50;5.50;;;;;;;7.83;65.90;98683.95;104746;1264;97922;-65
2023/05/10 04:57:15;;;;;;;8.20;5.30;;;;;;;7.93;66.02;98680.88;104669;1264;98416;-66
2023/05/10 04:59:42;;;;;;;7.30;3.70;;;;;;;8.06;65.46;98681.86;104700;1264;98017;-66
2023/05/10 05:02:09;;;;;;;11.30;5.40;;;;;;;8.17;65.73;98679.25;104746;1264;100547;-66
2023/05/10 05:04:40;;;;;;;12.90;6.20;;;;;;;8.28;64.88;98679.12;104628;1263;98005;-65
2023/05/10 05:07:19;;;;;;;8.20;4.80;;;;;;;8.38;64.66;98676.79;104631;1264;97954;-65
2023/05/10 05:09:53;;;;;;;7.90;4.60;;;;;;;8.49;63.92;98674.70;104789;1264;97954;-65
2023/05/10 05:12:36;;;;;;;9.40;5.60;;;;;;;8.55;64.15;98674.89;104775;1264;111325;-66
2023/05/10 05:15:16;;;;;;;9.60;5.50;;;;;;;8.68;64.61;98677.19;104356;1267;99074;-65
2023/05/10 05:17:43;;;;;;;9.70;5.70;;;;;;;8.90;64.21;98674.38;104551;1277;106447;-65
2023/05/10 05:20:11;;;;;;;8.30;4.50;;;;;;;9.07;64.04;98670.34;104797;1263;98831;-65
2023/05/10 05:22:38;;;;;;;7.20;4.90;;;;;;;9.23;63.30;98669.71;104580;1259;98711;-66
2023/05/10 05:25:06;;;;;;;7.60;4.90;;;;;;;9.36;63.54;98679.28;104789;1263;112465;-65
2023/05/10 05:27:34;;;;;;;8.40;5.30;;;;;;;9.54;62.56;98681.15;104778;1274;99261;-65
2023/05/10 05:30:01;;;;;;;8.40;4.90;;;;;;;9.69;62.27;98679.87;104504;1264;97978;-65
2023/05/10 05:32:28;;;;;;;7.10;4.70;;;;;;;9.81;61.56;98682.02;104312;1264;98225;-66
2023/05/10 05:34:56;;;;;;;8.50;4.50;;;;;;;9.89;61.13;98679.14;104569;1264;98473;-67
2023/05/10 05:37:24;;;;;;;6.10;4.30;;;;;;;10.02;60.31;98679.36;104550;1261;97939;-69
2023/05/10 05:39:51;;;;;;;6.90;3.50;;;;;;;10.08;60.39;98672.16;104628;1281;99232;-66
2023/05/10 05:42:18;;;;;;;7.40;4.80;;;;;;;10.09;59.92;98671.46;104529;1266;99254;-68
2023/05/10 05:44:46;;;;;;;8.10;4.90;;;;;;;10.14;60.04;98675.13;104580;1264;97852;-66
2023/05/10 05:47:14;;;;;;;6.40;4.30;;;;;;;10.22;59.30;98675.00;104606;1261;98239;-69
2023/05/10 05:49:41;;;;;;;6.60;3.40;;;;;;;10.33;59.59;98674.73;104510;1273;99161;-69
2023/05/10 05:52:08;;;;;;;6.40;4.10;;;;;;;10.45;59.42;98675.27;104573;1264;98014;-68
2023/05/10 05:54:35;;;;;;;8.00;4.70;;;;;;;10.55;59.07;98673.45;104528;1266;99257;-70
2023/05/10 05:57:02;;;;;;;6.90;4.50;;;;;;;10.64;58.66;98676.52;104574;1265;98008;-69
2023/05/10 05:59:29;;;;;;;10.20;5.00;;;;;;;10.77;59.05;98676.40;104515;1259;98047;-69
2023/05/10 06:01:56;;;;;;;7.20;4.50;;;;;;;10.96;58.60;98671.20;104575;1264;99251;-67
2023/05/10 06:04:24;;;;;;;6.50;4.30;;;;;;;11.07;58.13;98671.44;104539;1264;98030;-69
2023/05/10 06:06:51;;;;;;;8.00;4.60;;;;;;;11.23;58.04;98668.04;104506;1264;99235;-67
2023/05/10 06:09:18;;;;;;;5.80;3.60;;;;;;;11.36;56.80;98665.04;104649;1264;98075;-67
2023/05/10 06:11:46;;;;;;;6.30;4.00;;;;;;;11.40;57.02;98663.34;104596;1264;97941;-66
2023/05/10 06:14:13;;;;;;;6.20;4.00;;;;;;;11.59;56.98;98665.73;104488;1259;99250;-66
2023/05/10 06:16:40;;;;;;;6.60;3.50;;;;;;;11.80;56.15;98669.66;104494;1273;98025;-66
2023/05/10 06:19:08;;;;;;;5.70;3.50;;;;;;;11.92;55.58;98668.48;104598;1260;98630;-66
2023/05/10 06:21:35;;;;;;;7.90;4.40;;;;;;;12.06;55.29;98665.16;104487;1272;97962;-66
2023/05/10 06:24:02;;;;;;;12.20;4.20;;;;;;;12.16;54.91;98661.12;104550;1273;98832;-67
2023/05/10 06:26:30;;;;;;;5.40;3.40;;;;;;;12.30;54.26;98665.39;104619;1272;99257;-66
2023/05/10 06:28:57;;;;;;;5.90;3.30;;;;;;;12.42;54.25;98669.30;104641;1265;98011;-67
2023/05/10 06:31:24;;;;;;;12.10;4.50;;;;;;;12.63;54.12;98670.55;104641;1264;98401;-67
2023/05/10 06:33:52;;;;;;;6.70;4.40;;;;;;;12.80;53.03;98670.65;104781;1260;98097;-64
2023/05/10 06:36:24;;;;;;;7.20;3.90;;;;;;;12.87;52.94;98668.39;104485;1265;111785;-65
2023/05/10 06:38:51;;;;;;;3.80;2.50;;;;;;;12.97;52.55;98666.55;104597;1260;98191;-65
2023/05/10 06:41:18;;;;;;;6.80;4.50;;;;;;;13.06;52.76;98664.77;104532;1271;98024;-65
2023/05/10 06:43:45;;;;;;;6.40;3.20;;;;;;;13.25;52.43;98662.30;104784;1274;98046;-65
2023/05/10 06:46:13;;;;;;;4.60;3.10;;;;;;;13.33;51.35;98658.29;104661;1260;98360;-65
2023/05/10 06:48:41;;;;;;;3.80;2.80;;;;;;;13.41;51.51;98656.73;104734;1263;98612;-66
2023/05/10 06:51:08;;;;;;;5.20;3.60;;;;;;;13.61;50.66;98656.40;104588;1274;99394;-65
2023/05/10 06:53:36;;;;;;;8.10;4.20;;;;;;;13.74;50.41;98654.95;104485;1264;97947;-65
2023/05/10 06:56:03;;;;;;;4.60;3.20;;;;;;;13.80;50.73;98657.22;104603;1266;98015;-68
2023/05/10 06:58:32;;;;;;;5.30;3.40;;;;;;;13.85;50.14;98653.77;104573;1258;97936;-66
2023/05/10 07:01:03;;;;;;;4.40;3.20;;;;;;;13.88;49.82;98655.14;104771;1260;112601;-67
2023/05/10 07:03:32;;;;;;;6.00;3.90;;;;;;;14.00;50.14;98653.61;104808;1263;98877;-65
2023/05/10 07:06:03;;;;;;;5.10;3.30;;;;;;;14.22;49.83;98652.06;104646;1263;107886;-65
2023/05/10 07:08:31;;;;;;;3.80;2.70;;;;;;;14.51;48.90;98647.61;104637;1275;97944;-67
2023/05/10 07:11:03;;;;;;;4.90;3.20;;;;;;;14.71;48.52;98649.79;104413;1266;98144;-66
2023/05/10 07:13:31;;;;;;;4.80;3.10;;;;;;;14.87;47.96;98650.64;104855;1263;112288;-66
2023/05/10 07:15:59;;;;;;;5.40;3.30;;;;;;;15.01;48.20;98652.30;104561;1267;98156;-66
2023/05/10 07:18:26;;;;;;;5.50;3.10;;;;;;;15.11;46.91;98648.70;104771;1260;108603;-66
2023/05/10 07:20:53;;;;;;;5.30;3.40;;;;;;;15.11;46.92;98642.06;104745;1265;97867;-65
2023/05/10 07:23:20;;;;;;;4.00;2.10;;;;;;;15.21;46.90;98643.08;104730;1264;98043;-66
2023/05/10 07:25:51;;;;;;;5.50;3.20;;;;;;;15.28;46.03;98646.52;104744;1263;101420;-66
2023/05/10 07:28:19;;;;;;;4.10;3.00;;;;;;;15.37;45.88;98647.52;104430;1260;98837;-65
2023/05/10 07:30:46;;;;;;;4.60;2.90;;;;;;;15.47;45.84;98646.19;104764;1264;108711;-66
2023/05/10 07:33:15;;;;;;;4.30;3.00;;;;;;;15.70;45.88;98641.64;104749;1265;97980;-67
2023/05/10 07:35:43;;;;;;;4.50;2.80;;;;;;;15.96;45.71;98637.29;104816;1274;97923;-66
2023/05/10 07:38:10;;;;;;;5.80;2.70;;;;;;;16.08;44.80;98635.34;104643;1268;111291;-66
2023/05/10 07:40:43;;;;;;;5.30;3.00;;;;;;;16.17;43.97;98643.41;104772;1260;101431;-65
2023/05/10 07:43:16;;;;;;;5.00;2.90;;;;;;;16.34;43.95;98635.89;104525;1265;109964;-65
2023/05/10 07:45:47;;;;;;;3.60;2.20;;;;;;;16.67;44.00;98634.23;104541;1266;99459;-66
2023/05/10 07:48:14;;;;;;;4.20;3.20;;;;;;;16.80;43.00;98637.08;104607;1263;99234;-66
2023/05/10 07:50:41;;;;;;;3.30;3.00;;;;;;;16.96;42.80;98628.94;104468;1261;97887;-65
2023/05/10 07:53:08;;;;;;;5.10;2.90;;;;;;;17.28;43.82;98630.73;104630;1280;99119;-67
2023/05/10 07:55:35;;;;;;;5.00;2.90;;;;;;;17.53;41.82;98627.44;104491;1260;97928;-65
2023/05/10 07:58:02;;;;;;;3.50;2.30;;;;;;;17.71;41.99;98627.89;104600;1259;99341;-68
2023/05/10 08:00:29;;;;;;;3.70;2.50;;;;;;;17.81;40.93;98622.70;104679;1278;98105;-65
2023/05/10 08:02:56;;;;;;;4.40;2.60;;;;;;;17.91;41.00;98623.71;104640;1259;101478;-65
2023/05/10 08:05:23;;;;;;;4.70;2.60;;;;;;;18.04;40.80;98622.64;104611;1280;99102;-65
2023/05/10 08:07:51;;;;;;;2.70;2.20;;;;;;;18.17;40.42;98622.91;104657;1264;98034;-65
2023/05/10 08:10:20;;;;;;;5.10;2.80;;;;;;;18.12;39.44;98630.95;104570;1260;99148;-65
2023/05/10 08:13:00;;;;;;;3.90;2.50;;;;;;;18.25;40.47;98626.31;104761;1265;111295;-65
2023/05/10 08:15:29;;;;;;;4.20;2.40;;;;;;;18.43;39.25;98622.52;104597;1266;98486;-65
2023/05/10 08:17:56;;;;;;;3.00;2.30;;;;;;;18.28;39.54;98622.89;104631;1264;97938;-68
2023/05/10 08:20:23;;;;;;;2.60;2.30;;;;;;;18.48;39.96;98626.73;104536;1264;98044;-69
2023/05/10 08:22:50;;;;;;;2.80;1.90;;;;;;;18.89;39.19;98628.15;104810;1263;97961;-66
2023/05/10 08:25:18;;;;;;;3.10;2.40;;;;;;;19.06;38.40;98625.83;104748;1260;97972;-67
2023/05/10 08:27:45;;;;;;;4.40;2.30;;;;;;;19.47;38.56;98625.02;104804;1264;98043;-67
2023/05/10 08:30:16;;;;;;;3.30;2.10;;;;;;;19.80;37.37;98624.91;104573;1282;98021;-67
2023/05/10 08:32:50;;;;;;;3.50;2.20;;;;;;;19.91;36.56;98622.35;104552;1264;99118;-66
2023/05/10 08:35:17;;;;;;;2.90;2.30;;;;;;;20.11;37.13;98627.46;104629;1264;99093;-66
2023/05/10 08:37:45;;;;;;;4.10;2.60;;;;;;;20.46;36.61;98624.74;104559;1264;99207;-66
2023/05/10 08:40:13;;;;;;;4.20;2.50;;;;;;;20.63;35.90;98623.39;104502;1263;99343;-67
2023/05/10 08:42:45;;;;;;;4.00;2.40;;;;;;;20.83;35.76;98622.86;104652;1264;109202;-68
2023/05/10 08:45:15;;;;;;;3.40;2.30;;;;;;;21.15;35.71;98621.40;104710;1260;98029;-67
2023/05/10 08:47:43;;;;;;;2.20;2.00;;;;;;;21.42;34.22;98622.70;104774;1264;98554;-67
2023/05/10 08:50:11;;;;;;;4.70;2.90;;;;;;;21.31;35.09;98620.46;104809;1263;111119;-67
2023/05/10 08:52:40;;;;;;;5.10;2.40;;;;;;;21.55;34.60;98623.48;104515;1267;98005;-67
2023/05/10 08:55:08;;;;;;;4.80;2.50;;;;;;;21.79;34.36;98625.06;104419;1266;106691;-66
2023/05/10 08:57:36;;;;;;;2.90;2.20;;;;;;;22.06;34.45;98621.13;104370;1263;98022;-67
2023/05/10 09:00:05;;;;;;;2.90;2.00;;;;;;;22.38;33.61;98622.41;104383;1267;99690;-66
2023/05/10 09:02:45;;;;;;;4.90;3.10;;;;;;;22.50;33.88;98621.80;104730;1264;111461;-66
2023/05/10 09:05:27;;;;;;;2.50;1.90;;;;;;;22.74;33.24;98617.63;104337;1267;98787;-67
2023/05/10 09:08:06;;;;;;;4.00;2.10;;;;;;;22.89;32.63;98618.92;104237;1280;108244;-66
2023/05/10 09:10:33;;;;;;;4.60;2.70;;;;;;;22.84;31.40;98616.04;104592;1267;98825;-66
2023/05/10 09:13:02;;;;;;;3.50;2.30;;;;;;;22.80;32.69;98618.27;104602;1265;99157;-65
2023/05/10 09:15:29;;;;;;;3.30;2.40;;;;;;;22.76;32.08;98614.38;104714;1264;112134;-66
2023/05/10 09:17:57;;;;;;;5.50;2.80;;;;;;;22.87;32.59;98615.65;104522;1260;98086;-65
2023/05/10 09:20:24;;;;;;;5.50;2.30;;;;;;;22.95;31.92;98614.45;104458;1268;107591;-66
2023/05/10 09:22:51;;;;;;;3.80;2.50;;;;;;;22.66;32.19;98612.42;104579;1265;99247;-65
2023/05/10 09:25:19;;;;;;;4.20;2.50;;;;;;;22.44;31.85;98612.94;104536;1273;97944;-66
2023/05/10 09:27:47;;;;;;;2.90;2.20;;;;;;;22.52;32.45;98604.19;104585;1271;99249;-66
2023/05/10 09:30:32;;;;;;;3.10;2.40;;;;;;;22.84;32.62;98607.10;104692;1275;97958;-65
2023/05/10 09:33:00;;;;;;;3.60;2.60;;;;;;;22.89;31.75;98601.35;104664;1264;108410;-66
2023/05/10 09:35:30;;;;;;;4.80;2.60;;;;;;;22.72;31.59;98605.74;104619;1264;99299;-65
2023/05/10 09:38:00;;;;;;;3.70;2.60;;;;;;;22.41;31.60;98607.98;104572;1263;97932;-65
2023/05/10 09:40:29;;;;;;;4.10;2.40;;;;;;;22.06;32.02;98607.95;104590;1259;111428;-64
2023/05/10 09:43:05;;;;;;;3.30;2.40;;;;;;;21.30;32.86;98606.59;104626;1259;99285;-68
2023/05/10 09:45:34;;;;;;;4.60;2.70;;;;;;;20.72;33.58;98614.02;104608;1277;105651;-67
2023/05/10 09:48:05;;;;;;;4.70;2.40;;;;;;;20.57;33.91;98614.75;104632;1266;99277;-66
2023/05/10 09:50:33;;;;;;;4.80;2.50;;;;;;;20.54;34.28;98618.39;104597;1265;98022;-67
2023/05/10 09:53:03;;;;;;;2.90;2.40;;;;;;;20.41;34.45;98618.00;104630;1260;112296;-66
2023/05/10 09:55:44;;;;;;;6.80;2.90;;;;;;;20.18;34.48;98612.61;104617;1274;99254;-66
2023/05/10 09:58:13;;;;;;;3.40;2.40;;;;;;;20.24;34.95;98611.08;104363;1267;107736;-68
2023/05/10 10:00:47;;;;;;;3.50;2.90;;;;;;;20.22;35.18;98610.11;104491;1268;98101;-66
2023/05/10 10:03:29;;;;;;;4.40;2.90;;;;;;;20.05;35.85;98609.58;104709;1265;98021;-66
2023/05/10 10:06:07;;;;;;;3.30;2.40;;;;;;;19.59;35.62;98609.00;104551;1264;110723;-66
2023/05/10 10:08:49;;;;;;;2.10;1.70;;;;;;;19.48;35.82;98604.16;104330;1266;98727;-68
2023/05/10 10:11:17;;;;;;;2.10;1.80;;;;;;;19.31;36.02;98601.86;104543;1268;107548;-68
2023/05/10 10:13:44;;;;;;;3.80;2.40;;;;;;;19.24;36.23;98596.36;104516;1268;98083;-65
2023/05/10 10:16:12;;;;;;;2.80;2.40;;;;;;;19.14;36.87;98602.79;104625;1267;99754;-65
2023/05/10 10:18:41;;;;;;;5.20;3.10;;;;;;;19.22;36.87;98598.85;104722;1266;112435;-65
2023/05/10 10:21:08;;;;;;;3.40;2.60;;;;;;;19.34;36.94;98601.02;104733;1260;98897;-65
2023/05/10 10:23:36;;;;;;;3.30;2.70;;;;;;;19.48;36.39;98592.08;104734;1259;108607;-65
2023/05/10 10:26:04;;;;;;;3.90;2.30;;;;;;;19.57;36.45;98592.44;104680;1263;99254;-65
2023/05/10 10:28:53;;;;;;;4.20;2.50;;;;;;;19.52;36.50;98587.30;104760;1264;99347;-65
2023/05/10 10:31:26;;;;;;;3.30;2.10;;;;;;;19.70;36.77;98592.55;104555;1260;112200;-66
2023/05/10 10:34:03;;;;;;;3.80;2.20;;;;;;;19.71;36.25;98594.08;104639;1259;99207;-65
2023/05/10 10:36:33;;;;;;;4.70;3.00;;;;;;;20.24;35.32;98595.33;104577;1260;108458;-66
2023/05/10 10:39:02;;;;;;;2.60;2.20;;;;;;;20.52;34.54;98589.65;104552;1264;97950;-65
2023/05/10 10:41:32;;;;;;;5.70;2.50;;;;;;;20.38;34.42;98585.54;104520;1263;99181;-66
2023/05/10 10:44:29;;;;;;;3.60;2.50;;;;;;;20.17;34.44;98588.04;104599;1265;112143;-65
2023/05/10 10:47:22;;;;;;;3.10;2.60;;;;;;;20.10;35.16;98582.39;104639;1263;99162;-66
2023/05/10 10:50:04;;;;;;;4.00;2.70;;;;;;;20.34;35.56;98580.90;104560;1263;107196;-65
2023/05/10 10:52:33;;;;;;;3.80;2.70;;;;;;;20.61;34.20;98574.21;104620;1264;98092;-65
2023/05/10 10:55:07;;;;;;;4.10;2.70;;;;;;;20.74;34.47;98575.46;104639;1263;98741;-65
2023/05/10 10:57:40;;;;;;;4.70;2.20;;;;;;;21.22;34.19;98571.60;104511;1264;112391;-65
2023/05/10 11:00:37;;;;;;;4.10;2.50;;;;;;;21.73;33.48;98569.97;104450;1267;99143;-68
2023/05/10 11:03:14;;;;;;;4.40;2.40;;;;;;;22.08;32.37;98564.38;104339;1268;107231;-66
2023/05/10 11:05:51;;;;;;;3.10;2.20;;;;;;;22.21;32.25;98556.02;104441;1267;97987;-64
2023/05/10 11:08:33;;;;;;;5.00;2.50;;;;;;;22.18;31.98;98555.22;104418;1262;99250;-64
2023/05/10 11:11:09;;;;;;;3.70;2.30;;;;;;;22.59;31.73;98557.84;104546;1265;112168;-66
2023/05/10 11:13:48;;;;;;;5.30;2.20;;;;;;;22.24;31.51;98556.98;104558;1268;98281;-66
2023/05/10 11:16:19;;;;;;;3.60;2.20;;;;;;;22.28;31.71;98553.57;104697;1260;108835;-66
2023/05/10 11:18:53;;;;;;;2.50;1.90;;;;;;;22.70;31.04;98557.84;104563;1275;98011;-65
2023/05/10 11:21:20;;;;;;;2.70;2.20;;;;;;;22.95;30.18;98558.33;104555;1260;97994;-66
2023/05/10 11:23:51;;;;;;;2.40;2.00;;;;;;;22.85;30.20;98553.54;104584;1274;98851;-66
2023/05/10 11:26:18;;;;;;;6.90;2.50;;;;;;;22.65;29.99;98556.50;104512;1265;99428;-65
2023/05/10 11:28:48;;;;;;;3.80;2.70;;;;;;;22.71;30.97;98554.90;104323;1277;107379;-64
2023/05/10 11:31:18;;;;;;;2.40;1.90;;;;;;;22.83;30.07;98549.31;104595;1263;98066;-66
2023/05/10 11:33:51;;;;;;;3.00;2.00;;;;;;;22.72;29.96;98545.73;104615;1267;98038;-66
2023/05/10 11:36:24;;;;;;;5.20;2.00;;;;;;;22.40;30.33;98551.11;104412;1259;111162;-66
2023/05/10 11:38:52;;;;;;;3.00;2.10;;;;;;;22.39;30.30;98548.16;104704;1266;98820;-64
2023/05/10 11:41:23;;;;;;;3.60;1.80;;;;;;;22.79;30.53;98548.83;104537;1259;108367;-65